createdAt,value
2023-03-15T00:02:22.553Z,100050.63
2023-03-15T00:05:24.390Z,100056.94
2023-03-15T00:08:27.862Z,100065.28
2023-03-15T00:11:33.449Z,100070.81
2023-03-15T00:14:36.707Z,100071.53
2023-03-15T00:17:38.487Z,100070.16
2023-03-15T00:20:40.591Z,100074.34
2023-03-15T00:23:46.890Z,100083.19
2023-03-15T00:26:50.721Z,100094.88
2023-03-15T00:29:52.522Z,100089.22
2023-03-15T00:32:54.289Z,100093.78
2023-03-15T00:35:56.473Z,100100.78
2023-03-15T00:39:00.500Z,100096.53
2023-03-15T00:42:03.981Z,100100.25
2023-03-15T00:45:08.889Z,100107.22
2023-03-15T00:48:10.514Z,100113.47
2023-03-15T00:51:14.846Z,100112.69
2023-03-15T00:54:18.328Z,100120.78
2023-03-15T00:57:20.463Z,100121.31
2023-03-15T01:00:24.978Z,100129.06
2023-03-15T01:03:27.454Z,100137.09
2023-03-15T01:06:30.754Z,100141.72
2023-03-15T01:09:35.832Z,100141.53
2023-03-15T01:12:38.691Z,100151.09
2023-03-15T01:15:40.569Z,100148.78
2023-03-15T01:18:42.755Z,100144.34
2023-03-15T01:21:47.800Z,100149.59
2023-03-15T01:24:55.084Z,100153.63
2023-03-15T01:27:56.995Z,100151.56
2023-03-15T01:30:59.987Z,100149.66
2023-03-15T01:34:02.012Z,100148.25
2023-03-15T01:37:07.060Z,100155.44
2023-03-15T01:40:16.135Z,100161.53
2023-03-15T01:43:20.786Z,100168.16
2023-03-15T01:46:25.149Z,100173.16
2023-03-15T01:49:32.702Z,100180.81
2023-03-15T01:52:37.801Z,100188.31
2023-03-15T01:55:42.304Z,100184.13
2023-03-15T01:58:48.673Z,100190.75
2023-03-15T02:01:54.444Z,100190.63
2023-03-15T02:05:01.763Z,100188.72
2023-03-15T02:08:07.654Z,100191.16
2023-03-15T02:11:14.271Z,100180.03
2023-03-15T02:14:17.774Z,100179.19
2023-03-15T02:17:24.411Z,100182.84
2023-03-15T02:20:35.255Z,100178.31
2023-03-15T02:23:36.944Z,100188.63
2023-03-15T02:26:43.994Z,100188.84
2023-03-15T02:29:47.040Z,100185.63
2023-03-15T02:32:49.202Z,100186.13
2023-03-15T02:35:51.495Z,100189.31
2023-03-15T02:38:54.592Z,100188.94
2023-03-15T02:41:58.623Z,100201.44
2023-03-15T02:45:05.306Z,100204.88
2023-03-15T02:48:09.485Z,100217.59
2023-03-15T02:51:19.791Z,100226.78
2023-03-15T02:54:21.701Z,100221.59
2023-03-15T02:57:23.332Z,100223.78
2023-03-15T03:00:27.358Z,100224.41
2023-03-15T03:03:29.116Z,100229.34
2023-03-15T03:06:30.990Z,100234.19
2023-03-15T03:09:33.552Z,100246.19
2023-03-15T03:12:36.386Z,100249.72
2023-03-15T03:15:39.533Z,100249.38
2023-03-15T03:18:42.229Z,100247.63
2023-03-15T03:21:45.134Z,100252.47
2023-03-15T03:24:48.145Z,100253.81
2023-03-15T03:27:51.355Z,100259.50
2023-03-15T03:30:55.764Z,100261.19
2023-03-15T03:33:57.740Z,100280.56
2023-03-15T03:37:00.378Z,100287.22
2023-03-15T03:40:22.254Z,100280.81
2023-03-15T03:43:24.034Z,100273.66
2023-03-15T03:46:28.496Z,100277.41
2023-03-15T03:49:30.899Z,100282.88
2023-03-15T03:52:33.496Z,100284.91
2023-03-15T03:55:42.754Z,100290.59
2023-03-15T03:58:44.896Z,100294.53
2023-03-15T04:01:55.226Z,100296.59
2023-03-15T04:04:57.429Z,100302.00
2023-03-15T04:08:00.857Z,100305.50
2023-03-15T04:11:07.479Z,100308.28
2023-03-15T04:14:14.022Z,100304.47
2023-03-15T04:17:19.386Z,100307.78
2023-03-15T04:20:22.335Z,100311.91
2023-03-15T04:23:24.874Z,100309.63
2023-03-15T04:26:38.344Z,100303.97
2023-03-15T04:29:57.087Z,100300.00
2023-03-15T04:33:00.399Z,100302.59
2023-03-15T04:36:20.840Z,100309.00
2023-03-15T04:40:01.388Z,100306.72
2023-03-15T04:43:24.379Z,100316.34
2023-03-15T04:46:48.765Z,100324.31
2023-03-15T04:49:57.864Z,100320.81
2023-03-15T04:53:07.288Z,100325.13
2023-03-15T04:56:29.612Z,100324.63
2023-03-15T04:59:45.196Z,100316.75
2023-03-15T05:03:12.907Z,100327.38
2023-03-15T05:06:31.318Z,100328.94
2023-03-15T05:09:54.291Z,100333.38
2023-03-15T05:13:19.023Z,100324.34
2023-03-15T05:16:48.401Z,100324.59
2023-03-15T05:20:10.881Z,100325.72
2023-03-15T05:23:34.300Z,100326.63
2023-03-15T05:26:56.732Z,100322.00
2023-03-15T05:30:08.872Z,100330.56
2023-03-15T05:33:46.684Z,100337.28
2023-03-15T05:37:07.304Z,100344.84
2023-03-15T05:40:32.990Z,100343.88
2023-03-15T05:43:49.328Z,100341.81
2023-03-15T05:47:17.792Z,100342.50
2023-03-15T05:50:41.032Z,100342.00
2023-03-15T05:54:08.951Z,100338.25
2023-03-15T05:57:31.390Z,100351.00
2023-03-15T06:01:01.506Z,100347.38
2023-03-15T06:04:23.780Z,100350.53
2023-03-15T06:07:25.892Z,100352.94
2023-03-15T06:10:27.634Z,100365.75
2023-03-15T06:13:33.345Z,100363.88
2023-03-15T06:16:39.630Z,100375.91
2023-03-15T06:19:42.809Z,100368.34
2023-03-15T06:22:45.495Z,100367.69
2023-03-15T06:25:59.977Z,100376.16
2023-03-15T06:29:06.437Z,100378.13
2023-03-15T06:32:09.341Z,100387.31
2023-03-15T06:35:13.557Z,100390.31
2023-03-15T06:38:15.372Z,100391.09
2023-03-15T06:41:17.388Z,100390.00
2023-03-15T06:44:20.858Z,100397.88
2023-03-15T06:47:28.491Z,100403.28
2023-03-15T06:50:40.611Z,100408.00
2023-03-15T06:53:48.208Z,100418.53
2023-03-15T06:56:51.150Z,100405.19
2023-03-15T06:59:54.245Z,100403.34
2023-03-15T07:02:56.200Z,100401.28
2023-03-15T07:05:58.026Z,100408.50
2023-03-15T07:08:59.767Z,100414.69
2023-03-15T07:12:01.567Z,100431.53
2023-03-15T07:15:05.201Z,100450.19
2023-03-15T07:18:07.097Z,100440.66
2023-03-15T07:21:08.955Z,100448.59
2023-03-15T07:24:10.747Z,100453.25
2023-03-15T07:27:15.654Z,100459.34
2023-03-15T07:30:20.886Z,100467.38
2023-03-15T07:33:24.141Z,100474.22
2023-03-15T07:36:26.337Z,100466.78
2023-03-15T07:39:29.191Z,100465.75
2023-03-15T07:42:30.941Z,100474.03
2023-03-15T07:45:37.404Z,100476.22
2023-03-15T07:48:39.102Z,100477.19
2023-03-15T07:51:42.270Z,100482.78
2023-03-15T07:54:44.022Z,100468.91
2023-03-15T07:57:46.511Z,100470.47
2023-03-15T08:00:53.912Z,100476.47
2023-03-15T08:03:55.884Z,100486.59
2023-03-15T08:06:57.675Z,100485.63
2023-03-15T08:09:59.857Z,100491.00
2023-03-15T08:13:01.655Z,100492.34
2023-03-15T08:16:05.484Z,100492.66
2023-03-15T08:19:07.647Z,100499.91
2023-03-15T08:22:09.948Z,100514.38
2023-03-15T08:25:13.891Z,100507.03
2023-03-15T08:28:15.853Z,100517.00
2023-03-15T08:31:19.025Z,100514.00
2023-03-15T08:34:21.693Z,100514.03
2023-03-15T08:37:23.953Z,100520.03
2023-03-15T08:40:25.712Z,100521.59
2023-03-15T08:43:27.647Z,100525.19
2023-03-15T08:46:30.935Z,100519.00
2023-03-15T08:49:32.803Z,100527.91
2023-03-15T08:52:34.553Z,100526.75
2023-03-15T08:55:36.304Z,100533.16
2023-03-15T08:58:38.013Z,100533.47
2023-03-15T09:01:41.290Z,100540.94
2023-03-15T09:04:43.551Z,100536.78
2023-03-15T09:07:46.047Z,100537.44
2023-03-15T09:10:47.728Z,100543.31
2023-03-15T09:13:49.592Z,100546.19
2023-03-15T09:16:52.678Z,100545.59
2023-03-15T09:19:54.434Z,100547.97
2023-03-15T09:22:57.960Z,100552.94
2023-03-15T09:25:59.755Z,100559.88
2023-03-15T09:29:02.407Z,100556.56
2023-03-15T09:32:06.109Z,100561.94
2023-03-15T09:35:12.528Z,100562.06
2023-03-15T09:38:14.293Z,100573.13
2023-03-15T09:41:21.647Z,100567.03
2023-03-15T09:44:44.698Z,100575.50
2023-03-15T09:48:00.133Z,100585.13
2023-03-15T09:51:07.242Z,100581.69
2023-03-15T09:54:12.855Z,100589.59
2023-03-15T09:57:18.277Z,100596.00
2023-03-15T10:00:25.546Z,100591.22
2023-03-15T10:03:33.481Z,100592.06
2023-03-15T10:06:38.026Z,100589.47
2023-03-15T10:09:39.814Z,100593.41
2023-03-15T10:12:51.483Z,100592.03
2023-03-15T10:16:03.467Z,100574.50
2023-03-15T10:19:15.469Z,100582.06
2023-03-15T10:22:25.542Z,100585.59
2023-03-15T10:25:29.339Z,100594.56
2023-03-15T10:28:37.605Z,100586.41
2023-03-15T10:31:44.804Z,100597.56
2023-03-15T10:34:52.103Z,100596.66
2023-03-15T10:37:54.416Z,100596.84
2023-03-15T10:40:57.774Z,100590.16
2023-03-15T10:44:01.971Z,100587.31
2023-03-15T10:47:21.379Z,100590.31
2023-03-15T10:50:28.654Z,100590.84
2023-03-15T10:53:30.430Z,100588.34
2023-03-15T10:56:38.963Z,100586.47
2023-03-15T10:59:57.632Z,100578.81
2023-03-15T11:03:04.806Z,100584.75
2023-03-15T11:06:21.059Z,100576.63
2023-03-15T11:09:25.684Z,100577.44
2023-03-15T11:12:29.417Z,100578.38
2023-03-15T11:15:31.415Z,100577.88
2023-03-15T11:18:37.156Z,100580.34
2023-03-15T11:21:42.327Z,100580.09
2023-03-15T11:24:44.120Z,100569.44
2023-03-15T11:27:51.904Z,100575.84
2023-03-15T11:30:55.633Z,100571.25
2023-03-15T11:34:00.628Z,100578.03
2023-03-15T11:37:08.970Z,100572.28
2023-03-15T11:40:17.721Z,100579.53
2023-03-15T11:43:24.461Z,100579.84
2023-03-15T11:46:32.035Z,100576.16
2023-03-15T11:49:40.285Z,100568.13
2023-03-15T11:52:47.943Z,100572.09
2023-03-15T11:55:54.700Z,100572.78
2023-03-15T11:59:06.201Z,100580.56
2023-03-15T12:02:36.497Z,100587.84
2023-03-15T12:05:47.846Z,100588.75
2023-03-15T12:08:52.441Z,100586.13
2023-03-15T12:11:57.740Z,100577.78
2023-03-15T12:15:05.256Z,100593.81
2023-03-15T12:18:14.748Z,100587.66
2023-03-15T12:21:21.457Z,100597.06
2023-03-15T12:24:27.381Z,100607.00
2023-03-15T12:27:29.333Z,100590.19
2023-03-15T12:30:35.279Z,100603.13
2023-03-15T12:33:46.637Z,100608.13
2023-03-15T12:36:53.445Z,100612.72
2023-03-15T12:40:02.398Z,100620.88
2023-03-15T12:43:04.207Z,100621.44
2023-03-15T12:46:06.387Z,100617.97
2023-03-15T12:49:12.045Z,100605.59
2023-03-15T12:52:31.980Z,100607.34
2023-03-15T12:55:35.789Z,100614.00
2023-03-15T12:58:41.239Z,100603.50
2023-03-15T13:01:43.778Z,100614.91
2023-03-15T13:04:49.725Z,100609.28
2023-03-15T13:07:57.357Z,100609.44
2023-03-15T13:11:14.280Z,100602.13
2023-03-15T13:14:30.122Z,100597.63
2023-03-15T13:17:39.866Z,100595.91
2023-03-15T13:20:48.042Z,100590.69
2023-03-15T13:23:54.519Z,100580.28
2023-03-15T13:27:04.226Z,100585.84
2023-03-15T13:30:35.685Z,100583.22
2023-03-15T13:33:38.256Z,100581.69
2023-03-15T13:36:43.318Z,100582.34
2023-03-15T13:39:55.708Z,100582.50
2023-03-15T13:43:02.336Z,100588.88
2023-03-15T13:46:05.360Z,100594.41
2023-03-15T13:49:07.263Z,100588.47
2023-03-15T13:52:14.774Z,100590.69
2023-03-15T13:55:21.566Z,100594.00
2023-03-15T13:58:26.356Z,100589.56
2023-03-15T14:01:29.419Z,100584.00
2023-03-15T14:04:35.460Z,100584.41
2023-03-15T14:07:39.894Z,100569.81
2023-03-15T14:10:42.050Z,100580.75
2023-03-15T14:13:51.204Z,100567.16
2023-03-15T14:17:04.991Z,100574.94
2023-03-15T14:20:15.462Z,100573.16
2023-03-15T14:23:18.671Z,100575.22
2023-03-15T14:26:22.972Z,100574.81
2023-03-15T14:29:29.614Z,100578.06
2023-03-15T14:32:33.918Z,100577.13
2023-03-15T14:35:43.615Z,100579.91
2023-03-15T14:38:51.560Z,100571.25
2023-03-15T14:41:53.570Z,100580.19
2023-03-15T14:44:56.818Z,100579.34
2023-03-15T14:48:02.447Z,100588.94
2023-03-15T14:51:04.585Z,100591.16
2023-03-15T14:54:08.125Z,100598.69
2023-03-15T14:57:10.087Z,100600.44
2023-03-15T15:03:41.290Z,100599.00
2023-03-15T15:06:51.433Z,100606.75
2023-03-15T15:09:53.286Z,100606.13
2023-03-15T15:13:05.594Z,100608.06
2023-03-15T15:16:09.857Z,100599.19
2023-03-15T15:19:12.138Z,100597.28
2023-03-15T15:22:14.652Z,100596.88
2023-03-15T15:25:18.957Z,100594.41
2023-03-15T15:28:33.120Z,100590.44
2023-03-15T15:31:38.319Z,100598.56
2023-03-15T15:34:42.493Z,100605.13
2023-03-15T15:37:46.396Z,100612.94
2023-03-15T15:40:48.461Z,100615.88
2023-03-15T15:43:50.622Z,100618.00
2023-03-15T15:46:54.012Z,100615.19
2023-03-15T15:49:55.636Z,100620.91
2023-03-15T15:52:59.092Z,100623.63
2023-03-15T15:56:02.180Z,100626.31
2023-03-15T15:59:04.855Z,100626.31
2023-03-15T16:02:14.597Z,100627.84
2023-03-15T16:05:16.730Z,100631.75
2023-03-15T16:08:22.637Z,100635.91
2023-03-15T16:11:24.526Z,100630.28
2023-03-15T16:14:26.656Z,100623.22
2023-03-15T16:17:29.781Z,100634.25
2023-03-15T16:20:31.474Z,100637.75
2023-03-15T16:23:33.990Z,100639.44
2023-03-15T16:26:38.232Z,100634.28
2023-03-15T16:29:43.379Z,100639.13
2023-03-15T16:32:46.515Z,100633.22
2023-03-15T16:35:50.174Z,100641.63
2023-03-15T16:38:52.564Z,100648.50
2023-03-15T16:41:54.451Z,100650.75
2023-03-15T16:44:56.133Z,100653.91
2023-03-15T16:47:59.357Z,100650.56
2023-03-15T16:51:01.403Z,100659.69
2023-03-15T16:54:16.135Z,100657.50
2023-03-15T16:57:22.296Z,100660.06
2023-03-15T17:00:25.500Z,100661.31
2023-03-15T17:03:30.061Z,100663.56
2023-03-15T17:06:31.905Z,100675.97
2023-03-15T17:09:33.876Z,100666.47
2023-03-15T17:12:37.345Z,100676.59
2023-03-15T17:15:39.409Z,100682.78
2023-03-15T17:18:43.488Z,100689.97
2023-03-15T17:21:45.963Z,100688.59
2023-03-15T17:24:48.687Z,100691.53
2023-03-15T17:27:51.014Z,100696.81
2023-03-15T17:30:59.696Z,100701.22
2023-03-15T17:34:12.167Z,100704.88
2023-03-15T17:37:14.565Z,100716.72
2023-03-15T17:40:22.612Z,100715.09
2023-03-15T17:43:24.562Z,100709.50
2023-03-15T17:46:32.848Z,100719.44
2023-03-15T17:49:36.171Z,100722.50
2023-03-15T17:52:39.322Z,100731.63
2023-03-15T17:55:41.228Z,100738.59
2023-03-15T17:58:46.678Z,100737.47
2023-03-15T18:01:48.841Z,100737.81
2023-03-15T18:04:51.995Z,100750.44
2023-03-15T18:07:58.936Z,100749.50
2023-03-15T18:11:01.437Z,100750.81
2023-03-15T18:14:03.770Z,100752.47
2023-03-15T18:17:05.594Z,100749.81
2023-03-15T18:20:12.131Z,100755.91
2023-03-15T18:23:14.866Z,100758.91
2023-03-15T18:26:18.058Z,100769.56
2023-03-15T18:29:20.804Z,100768.94
2023-03-15T18:32:22.683Z,100771.75
2023-03-15T18:35:28.090Z,100769.22
2023-03-15T18:38:30.009Z,100767.06
2023-03-15T18:41:32.269Z,100772.84
2023-03-15T18:44:34.431Z,100775.59
2023-03-15T18:47:36.195Z,100773.59
2023-03-15T18:50:39.297Z,100779.00
2023-03-15T18:53:42.951Z,100777.25
2023-03-15T18:56:45.041Z,100776.25
2023-03-15T18:59:46.850Z,100773.88
2023-03-15T19:02:48.604Z,100769.91
2023-03-15T19:05:51.672Z,100772.66
2023-03-15T19:08:54.317Z,100766.00
2023-03-15T19:11:56.096Z,100776.47
2023-03-15T19:14:57.954Z,100777.34
2023-03-15T19:17:59.885Z,100773.59
2023-03-15T19:21:02.974Z,100775.56
2023-03-15T19:24:05.331Z,100783.22
2023-03-15T19:27:07.404Z,100790.22
2023-03-15T19:30:14.378Z,100793.59
2023-03-15T19:33:16.255Z,100801.97
2023-03-15T19:36:19.397Z,100801.44
2023-03-15T19:39:21.106Z,100803.66
2023-03-15T19:42:22.854Z,100803.53
2023-03-15T19:45:25.340Z,100811.59
2023-03-15T19:48:27.383Z,100811.91
2023-03-15T19:51:30.805Z,100811.72
2023-03-15T19:54:34.082Z,100813.69
2023-03-15T19:57:35.887Z,100812.59
2023-03-15T20:00:37.693Z,100810.88
2023-03-15T20:03:39.461Z,100808.09
2023-03-15T20:06:42.709Z,100806.00
2023-03-15T20:09:45.001Z,100800.41
2023-03-15T20:12:47.279Z,100812.03
2023-03-15T20:15:49.236Z,100809.03
2023-03-15T20:18:51.500Z,100811.31
2023-03-15T20:21:54.730Z,100805.16
2023-03-15T20:24:56.512Z,100808.34
2023-03-15T20:27:58.191Z,100817.78
2023-03-15T20:30:59.984Z,100830.09
2023-03-15T20:34:01.832Z,100826.81
2023-03-15T20:37:05.150Z,100831.31
2023-03-15T20:40:08.944Z,100834.34
2023-03-15T20:43:12.381Z,100831.59
2023-03-15T20:46:16.733Z,100832.03
2023-03-15T20:49:18.745Z,100832.66
2023-03-15T20:52:21.817Z,100824.84
2023-03-15T20:55:23.882Z,100837.97
2023-03-15T20:58:25.978Z,100841.53
2023-03-15T21:01:27.935Z,100844.25
2023-03-15T21:04:29.952Z,100847.53
2023-03-15T21:07:33.212Z,100835.13
2023-03-15T21:10:35.226Z,100825.44
2023-03-15T21:13:37.371Z,100839.19
2023-03-15T21:16:39.101Z,100840.41
2023-03-15T21:19:41.972Z,100851.56
2023-03-15T21:22:45.282Z,100836.38
2023-03-15T21:25:54.459Z,100840.91
2023-03-15T21:28:56.074Z,100840.69
2023-03-15T21:31:58.886Z,100847.38
2023-03-15T21:35:00.841Z,100849.56
2023-03-15T21:38:04.081Z,100846.81
2023-03-15T21:41:09.075Z,100847.03
2023-03-15T21:44:11.460Z,100848.47
2023-03-15T21:47:14.482Z,100847.94
2023-03-15T21:50:16.605Z,100858.97
2023-03-15T21:53:20.252Z,100855.09
2023-03-15T21:56:26.163Z,100858.34
2023-03-15T21:59:28.326Z,100850.00
2023-03-15T22:02:30.202Z,100855.84
2023-03-15T22:05:34.024Z,100859.41
2023-03-15T22:08:37.163Z,100851.06
2023-03-15T22:11:59.111Z,100854.13
2023-03-15T22:15:05.701Z,100847.84
2023-03-15T22:18:07.852Z,100851.81
2023-03-15T22:21:09.799Z,100848.75
2023-03-15T22:24:12.851Z,100844.56
2023-03-15T22:27:14.745Z,100835.22
2023-03-15T22:30:18.706Z,100839.50
2023-03-15T22:33:23.988Z,100829.94
2023-03-15T22:36:26.075Z,100832.03
2023-03-15T22:39:29.472Z,100836.72
2023-03-15T22:42:31.292Z,100841.44
2023-03-15T22:45:33.640Z,100839.97
2023-03-15T22:48:35.837Z,100845.13
2023-03-15T22:51:40.364Z,100834.50
2023-03-15T22:54:43.772Z,100834.88
2023-03-15T22:57:45.789Z,100830.22
2023-03-15T23:00:47.696Z,100835.09
2023-03-15T23:03:49.702Z,100827.44
2023-03-15T23:06:51.860Z,100832.44
2023-03-15T23:09:55.724Z,100819.88
2023-03-15T23:12:57.804Z,100825.78
2023-03-15T23:15:59.613Z,100837.31
2023-03-15T23:19:03.025Z,100816.53
2023-03-15T23:22:05.255Z,100823.47
2023-03-15T23:25:10.079Z,100829.38
2023-03-15T23:28:11.991Z,100829.38
2023-03-15T23:31:13.950Z,100834.72
2023-03-15T23:34:15.838Z,100820.97
2023-03-15T23:37:17.685Z,100825.69
2023-03-15T23:40:21.550Z,100833.81
2023-03-15T23:43:23.676Z,100834.13
2023-03-15T23:46:26.425Z,100833.88
2023-03-15T23:49:28.558Z,100833.69
2023-03-15T23:52:30.934Z,100837.09
2023-03-15T23:55:34.055Z,100840.91
2023-03-15T23:58:35.817Z,100841.38
